KALO/ALO METAR and TAF weather

Enter ICAO airport designator
Station Type Date Time Source
KALO METAR 2019/12/11 16:54 UTC NOAA

KALO 111654Z 01008KT 10SM CLR M10/M17 A3045 RMK AO2 SLP332 T11001172


Station Type Date Time Source
KALO Decoded METAR 2019/12/11 16:54 UTC NOAA

WATERLOO MUNICIPAL AIRPORT, IA, United States (KALO) 42-33N 92-24W 264M
Dec 11, 2019 - 11:54 AM EST / 2019.12.11 1654 UTC
Wind: from the N (010 degrees) at 9 MPH (8 KT):0
Visibility: 10 mile(s):0
Sky conditions: clear
Temperature: 14.0 F (-10.0 C)
Windchill: 1 F (-17 C):1
Dew Point: 1.0 F (-17.2 C)
Relative Humidity: 55%
Pressure (altimeter): 30.45 in. Hg (1031 hPa)
ob: KALO 111654Z 01008KT 10SM CLR M10/M17 A3045 RMK AO2 SLP332 T11001172
cycle: 17

Station Type Date Time Source
KALO TAF 2019/12/11 18:33 UTC NOAA

TAF KALO 111730Z 1118/1218 01008KT P6SM SKC
FM120900 14009G17KT P6SM OVC200 WS020/18040KT
FM121200 17010KT P6SM OVC050 WS020/20040KT
FM121500 19010G19KT P6SM OVC025 WS020/22040KT
FM121700 21011G22KT P6SM OVC015

Example: see airport list